Airfield :
LOGIN :

Register | Disclaimer

   EN    FR    IT 

 










Legend :    VFR   Marginal VFR   IFR   Intensive IFR   Very Intensive IFR
Visi :
Ceiling :
>= 8 km
>= 3000ft
5 to 8 km
1000 to 3000 ft
1500m to 5 km
500 to 1000 ft
800 to 1500m
200 to 500 ft
< 800m
< 200 ft
Symbols :   Thunderstorms  Fog  Heavy snow  Heavy precipitations  Wind > 20 kt
SIGMETs :     Misc.  Thunderstorms  Icing  Turbulence  Mountain Waves  Volcanic Ashes






- Airport Elevation : 84 ft


LFBC - Cazaux

CURRENT METAR :
  • 221200Z AUTO 05011KT 9999 // FEW033/// SCT048/// OVC070/// ///TCU 11/07 Q1024

EXPIRED METARs :
  • 221130Z AUTO 06010KT 9999 // ///TCU 12/05 Q1025
  • 221100Z AUTO 05008KT 9999 // NSC 11/03 Q1025
  • 221030Z AUTO 05007KT 9999 // NSC 11/02 Q1025
  • 221000Z AUTO 06008KT 9999 // FEW034/// BKN064/// BKN074/// ///TCU 10/02 Q1025
  • 220930Z AUTO 05010KT 9999 // ///TCU 09/01 Q1025

TAF TAF LFBC
Valid from the 22 at 09:00 until the 23 at 09:00 UTC


220800Z 2209/2309 05008KT CAVOK
BECMG 2216/2218 4000 RA SCT008 BKN013 BKN030
BECMG 2223/2301 7000 RA SCT008 BKN025
BECMG 2302/2304 2000 RADZ OVC004
BECMG 2305/2307 4000 RA BKN005 BKN012 OVC030



MET'MAP, your aeronautical weather chart ! - Copyright ORBIFLY December 2007 - Disclaimer

ORBIFLY MET'MAP TEAM :

Programming & Development : Alexandra Zaïnal
Concept & original design : Baudouin d'Aumeries
Assistance for programming : Marc-Olivier Méhu
Technical & hardware support : Manuel Goepfert

Contact : metmap@orbifly.com




SOURCES & CREDITS :

   NOAA